sensor_id;sensor_type;location;lat;lon;timestamp;P1;durP1;ratioP1;P2;durP2;ratioP2
21233;SDS011;10774;42.178;26.578;2023-02-28T00:02:16;16.23;;;8.13;;
21233;SDS011;10774;42.178;26.578;2023-02-28T00:04:42;12.65;;;7.13;;
21233;SDS011;10774;42.178;26.578;2023-02-28T00:07:08;11.98;;;7.05;;
21233;SDS011;10774;42.178;26.578;2023-02-28T00:09:34;13.77;;;7.05;;
21233;SDS011;10774;42.178;26.578;2023-02-28T00:11:59;12.07;;;7.07;;
21233;SDS011;10774;42.178;26.578;2023-02-28T00:14:25;10.00;;;6.93;;
21233;SDS011;10774;42.178;26.578;2023-02-28T00:16:50;11.82;;;6.65;;
21233;SDS011;10774;42.178;26.578;2023-02-28T00:19:16;13.93;;;7.30;;
21233;SDS011;10774;42.178;26.578;2023-02-28T00:21:41;12.02;;;6.90;;
21233;SDS011;10774;42.178;26.578;2023-02-28T00:24:08;13.15;;;7.30;;
21233;SDS011;10774;42.178;26.578;2023-02-28T00:26:33;11.07;;;6.32;;
21233;SDS011;10774;42.178;26.578;2023-02-28T00:28:58;15.52;;;7.18;;
21233;SDS011;10774;42.178;26.578;2023-02-28T00:31:24;11.23;;;6.90;;
21233;SDS011;10774;42.178;26.578;2023-02-28T00:33:49;12.02;;;6.43;;
21233;SDS011;10774;42.178;26.578;2023-02-28T00:36:16;10.57;;;6.13;;
21233;SDS011;10774;42.178;26.578;2023-02-28T00:38:42;13.07;;;6.35;;
21233;SDS011;10774;42.178;26.578;2023-02-28T00:41:07;12.25;;;6.25;;
21233;SDS011;10774;42.178;26.578;2023-02-28T00:43:34;10.65;;;6.57;;
21233;SDS011;10774;42.178;26.578;2023-02-28T00:46:01;11.98;;;6.45;;
21233;SDS011;10774;42.178;26.578;2023-02-28T00:48:27;9.13;;;6.65;;
21233;SDS011;10774;42.178;26.578;2023-02-28T00:50:52;12.88;;;6.13;;
21233;SDS011;10774;42.178;26.578;2023-02-28T00:53:18;10.00;;;5.72;;
21233;SDS011;10774;42.178;26.578;2023-02-28T00:55:43;11.32;;;5.85;;
21233;SDS011;10774;42.178;26.578;2023-02-28T00:58:09;10.50;;;5.78;;
21233;SDS011;10774;42.178;26.578;2023-02-28T01:03:08;10.98;;;6.25;;
21233;SDS011;10774;42.178;26.578;2023-02-28T01:05:34;10.57;;;5.68;;
21233;SDS011;10774;42.178;26.578;2023-02-28T01:07:59;11.57;;;5.65;;
21233;SDS011;10774;42.178;26.578;2023-02-28T01:10:25;10.40;;;5.43;;
21233;SDS011;10774;42.178;26.578;2023-02-28T01:12:52;8.88;;;5.50;;
21233;SDS011;10774;42.178;26.578;2023-02-28T01:15:18;7.78;;;5.00;;
21233;SDS011;10774;42.178;26.578;2023-02-28T01:17:43;9.43;;;5.22;;
21233;SDS011;10774;42.178;26.578;2023-02-28T01:20:09;12.43;;;5.38;;
21233;SDS011;10774;42.178;26.578;2023-02-28T01:22:34;12.30;;;5.20;;
21233;SDS011;10774;42.178;26.578;2023-02-28T01:25:00;9.65;;;4.68;;
21233;SDS011;10774;42.178;26.578;2023-02-28T01:27:25;13.57;;;5.53;;
21233;SDS011;10774;42.178;26.578;2023-02-28T01:29:51;15.55;;;5.28;;
21233;SDS011;10774;42.178;26.578;2023-02-28T01:32:17;9.73;;;4.55;;
21233;SDS011;10774;42.178;26.578;2023-02-28T01:34:42;8.88;;;4.72;;
21233;SDS011;10774;42.178;26.578;2023-02-28T01:37:08;10.13;;;4.70;;
21233;SDS011;10774;42.178;26.578;2023-02-28T01:39:33;7.85;;;4.97;;
21233;SDS011;10774;42.178;26.578;2023-02-28T01:41:59;6.32;;;4.53;;
21233;SDS011;10774;42.178;26.578;2023-02-28T01:47:33;11.40;;;6.03;;
21233;SDS011;10774;42.178;26.578;2023-02-28T01:50:04;11.90;;;6.38;;
21233;SDS011;10774;42.178;26.578;2023-02-28T01:52:32;7.82;;;5.20;;
21233;SDS011;10774;42.178;26.578;2023-02-28T01:54:59;9.00;;;6.00;;
21233;SDS011;10774;42.178;26.578;2023-02-28T01:57:29;12.73;;;6.32;;
21233;SDS011;10774;42.178;26.578;2023-02-28T02:00:04;13.57;;;6.05;;
21233;SDS011;10774;42.178;26.578;2023-02-28T02:02:41;8.27;;;5.63;;
21233;SDS011;10774;42.178;26.578;2023-02-28T02:05:16;9.25;;;6.53;;
21233;SDS011;10774;42.178;26.578;2023-02-28T02:07:43;9.85;;;6.15;;
21233;SDS011;10774;42.178;26.578;2023-02-28T02:10:11;11.75;;;6.15;;
21233;SDS011;10774;42.178;26.578;2023-02-28T02:15:33;8.15;;;6.13;;
21233;SDS011;10774;42.178;26.578;2023-02-28T02:23:33;10.52;;;5.75;;
21233;SDS011;10774;42.178;26.578;2023-02-28T02:29:31;11.95;;;7.30;;
21233;SDS011;10774;42.178;26.578;2023-02-28T02:35:15;10.43;;;6.93;;
21233;SDS011;10774;42.178;26.578;2023-02-28T02:37:50;10.00;;;7.10;;
21233;SDS011;10774;42.178;26.578;2023-02-28T02:40:25;18.13;;;8.00;;
21233;SDS011;10774;42.178;26.578;2023-02-28T02:45:32;12.55;;;8.55;;
21233;SDS011;10774;42.178;26.578;2023-02-28T02:48:04;11.48;;;7.63;;
21233;SDS011;10774;42.178;26.578;2023-02-28T02:50:33;15.45;;;8.48;;
21233;SDS011;10774;42.178;26.578;2023-02-28T02:53:05;13.18;;;8.65;;
21233;SDS011;10774;42.178;26.578;2023-02-28T02:55:34;15.20;;;8.15;;
21233;SDS011;10774;42.178;26.578;2023-02-28T02:58:10;10.73;;;8.35;;
21233;SDS011;10774;42.178;26.578;2023-02-28T03:00:45;13.93;;;7.90;;
21233;SDS011;10774;42.178;26.578;2023-02-28T03:03:16;12.13;;;8.43;;
21233;SDS011;10774;42.178;26.578;2023-02-28T03:05:49;11.30;;;8.50;;
21233;SDS011;10774;42.178;26.578;2023-02-28T03:08:15;11.85;;;8.50;;
21233;SDS011;10774;42.178;26.578;2023-02-28T03:10:42;11.40;;;8.70;;
21233;SDS011;10774;42.178;26.578;2023-02-28T03:15:49;16.10;;;8.95;;
21233;SDS011;10774;42.178;26.578;2023-02-28T03:18:36;15.60;;;9.25;;
21233;SDS011;10774;42.178;26.578;2023-02-28T03:21:12;13.30;;;9.25;;
21233;SDS011;10774;42.178;26.578;2023-02-28T03:23:56;14.07;;;10.55;;
21233;SDS011;10774;42.178;26.578;2023-02-28T03:26:31;16.60;;;10.43;;
21233;SDS011;10774;42.178;26.578;2023-02-28T03:29:14;15.05;;;11.38;;
21233;SDS011;10774;42.178;26.578;2023-02-28T03:31:51;19.90;;;11.55;;
21233;SDS011;10774;42.178;26.578;2023-02-28T03:34:42;15.35;;;10.10;;
21233;SDS011;10774;42.178;26.578;2023-02-28T03:37:15;17.05;;;10.45;;
21233;SDS011;10774;42.178;26.578;2023-02-28T03:39:45;13.18;;;10.20;;
21233;SDS011;10774;42.178;26.578;2023-02-28T03:42:14;14.32;;;9.88;;
21233;SDS011;10774;42.178;26.578;2023-02-28T03:45:32;15.05;;;10.48;;
21233;SDS011;10774;42.178;26.578;2023-02-28T03:47:43;14.20;;;10.45;;
21233;SDS011;10774;42.178;26.578;2023-02-28T03:50:14;14.90;;;11.45;;
21233;SDS011;10774;42.178;26.578;2023-02-28T03:52:48;18.05;;;13.07;;
21233;SDS011;10774;42.178;26.578;2023-02-28T03:55:18;24.70;;;15.82;;
21233;SDS011;10774;42.178;26.578;2023-02-28T03:57:50;25.33;;;16.25;;
21233;SDS011;10774;42.178;26.578;2023-02-28T04:00:25;28.08;;;18.38;;
21233;SDS011;10774;42.178;26.578;2023-02-28T04:02:58;21.17;;;15.32;;
21233;SDS011;10774;42.178;26.578;2023-02-28T04:05:24;20.02;;;13.40;;
21233;SDS011;10774;42.178;26.578;2023-02-28T04:07:50;17.65;;;13.00;;
21233;SDS011;10774;42.178;26.578;2023-02-28T04:10:16;14.63;;;11.52;;
21233;SDS011;10774;42.178;26.578;2023-02-28T04:12:42;14.98;;;11.43;;
21233;SDS011;10774;42.178;26.578;2023-02-28T04:15:07;16.80;;;11.10;;
21233;SDS011;10774;42.178;26.578;2023-02-28T04:17:33;13.35;;;10.85;;
21233;SDS011;10774;42.178;26.578;2023-02-28T04:19:59;12.85;;;10.52;;
21233;SDS011;10774;42.178;26.578;2023-02-28T04:22:24;14.80;;;10.75;;
21233;SDS011;10774;42.178;26.578;2023-02-28T04:24:51;14.85;;;10.80;;
21233;SDS011;10774;42.178;26.578;2023-02-28T04:27:18;14.02;;;11.23;;
21233;SDS011;10774;42.178;26.578;2023-02-28T04:29:44;14.93;;;11.23;;
21233;SDS011;10774;42.178;26.578;2023-02-28T04:32:09;15.00;;;9.98;;
21233;SDS011;10774;42.178;26.578;2023-02-28T04:34:35;16.08;;;11.25;;
21233;SDS011;10774;42.178;26.578;2023-02-28T04:37:01;17.35;;;10.15;;
21233;SDS011;10774;42.178;26.578;2023-02-28T04:39:28;14.23;;;10.80;;
21233;SDS011;10774;42.178;26.578;2023-02-28T04:41:54;14.98;;;11.10;;
21233;SDS011;10774;42.178;26.578;2023-02-28T04:44:21;13.15;;;10.82;;
21233;SDS011;10774;42.178;26.578;2023-02-28T04:46:47;13.38;;;9.85;;
21233;SDS011;10774;42.178;26.578;2023-02-28T04:49:13;13.88;;;9.77;;
21233;SDS011;10774;42.178;26.578;2023-02-28T04:51:39;13.43;;;10.18;;
21233;SDS011;10774;42.178;26.578;2023-02-28T04:54:05;13.70;;;10.50;;
21233;SDS011;10774;42.178;26.578;2023-02-28T04:56:31;19.83;;;11.52;;
21233;SDS011;10774;42.178;26.578;2023-02-28T04:58:56;15.35;;;11.65;;
21233;SDS011;10774;42.178;26.578;2023-02-28T05:03:49;16.75;;;11.50;;
21233;SDS011;10774;42.178;26.578;2023-02-28T05:06:17;13.20;;;10.75;;
21233;SDS011;10774;42.178;26.578;2023-02-28T05:08:43;15.98;;;11.32;;
21233;SDS011;10774;42.178;26.578;2023-02-28T05:11:13;15.32;;;11.85;;
21233;SDS011;10774;42.178;26.578;2023-02-28T05:13:47;20.17;;;15.40;;
21233;SDS011;10774;42.178;26.578;2023-02-28T05:16:13;15.52;;;11.27;;
21233;SDS011;10774;42.178;26.578;2023-02-28T05:18:39;16.75;;;13.52;;
21233;SDS011;10774;42.178;26.578;2023-02-28T05:21:04;17.13;;;13.48;;
21233;SDS011;10774;42.178;26.578;2023-02-28T05:23:30;36.17;;;26.50;;
21233;SDS011;10774;42.178;26.578;2023-02-28T05:25:56;36.45;;;25.88;;
21233;SDS011;10774;42.178;26.578;2023-02-28T05:28:21;21.25;;;17.30;;
21233;SDS011;10774;42.178;26.578;2023-02-28T05:30:47;18.30;;;13.07;;
21233;SDS011;10774;42.178;26.578;2023-02-28T05:33:13;16.38;;;13.05;;
21233;SDS011;10774;42.178;26.578;2023-02-28T05:35:39;17.25;;;12.50;;
21233;SDS011;10774;42.178;26.578;2023-02-28T05:38:05;15.50;;;12.18;;
21233;SDS011;10774;42.178;26.578;2023-02-28T05:40:31;14.13;;;11.32;;
21233;SDS011;10774;42.178;26.578;2023-02-28T05:42:56;15.18;;;11.50;;
21233;SDS011;10774;42.178;26.578;2023-02-28T05:45:22;12.65;;;11.07;;
21233;SDS011;10774;42.178;26.578;2023-02-28T05:47:47;13.95;;;11.30;;
21233;SDS011;10774;42.178;26.578;2023-02-28T05:50:13;16.00;;;10.35;;
21233;SDS011;10774;42.178;26.578;2023-02-28T05:52:38;23.58;;;13.63;;
21233;SDS011;10774;42.178;26.578;2023-02-28T05:55:03;21.92;;;15.57;;
21233;SDS011;10774;42.178;26.578;2023-02-28T05:57:29;35.95;;;21.90;;
21233;SDS011;10774;42.178;26.578;2023-02-28T05:59:55;15.77;;;13.10;;
21233;SDS011;10774;42.178;26.578;2023-02-28T06:02:20;16.25;;;11.13;;
21233;SDS011;10774;42.178;26.578;2023-02-28T06:04:45;26.27;;;15.40;;
21233;SDS011;10774;42.178;26.578;2023-02-28T06:07:11;23.73;;;16.33;;
21233;SDS011;10774;42.178;26.578;2023-02-28T06:09:37;18.77;;;12.38;;
21233;SDS011;10774;42.178;26.578;2023-02-28T06:12:03;33.95;;;22.50;;
21233;SDS011;10774;42.178;26.578;2023-02-28T06:14:30;31.55;;;18.98;;
21233;SDS011;10774;42.178;26.578;2023-02-28T06:16:57;28.52;;;18.50;;
21233;SDS011;10774;42.178;26.578;2023-02-28T06:19:23;26.92;;;17.42;;
21233;SDS011;10774;42.178;26.578;2023-02-28T06:21:54;15.35;;;11.60;;
21233;SDS011;10774;42.178;26.578;2023-02-28T06:24:20;16.67;;;12.95;;
21233;SDS011;10774;42.178;26.578;2023-02-28T06:26:47;20.00;;;11.65;;
21233;SDS011;10774;42.178;26.578;2023-02-28T06:29:13;15.07;;;11.70;;
21233;SDS011;10774;42.178;26.578;2023-02-28T06:31:43;14.20;;;10.68;;
21233;SDS011;10774;42.178;26.578;2023-02-28T06:34:13;19.00;;;12.77;;
21233;SDS011;10774;42.178;26.578;2023-02-28T06:36:39;20.45;;;12.55;;
21233;SDS011;10774;42.178;26.578;2023-02-28T06:39:05;23.15;;;12.82;;
21233;SDS011;10774;42.178;26.578;2023-02-28T06:41:31;30.52;;;18.48;;
21233;SDS011;10774;42.178;26.578;2023-02-28T06:44:02;24.45;;;16.02;;
21233;SDS011;10774;42.178;26.578;2023-02-28T06:46:38;19.43;;;13.77;;
21233;SDS011;10774;42.178;26.578;2023-02-28T06:49:04;17.48;;;13.32;;
21233;SDS011;10774;42.178;26.578;2023-02-28T06:51:30;15.63;;;11.55;;
21233;SDS011;10774;42.178;26.578;2023-02-28T06:53:55;23.02;;;14.43;;
21233;SDS011;10774;42.178;26.578;2023-02-28T06:56:20;20.50;;;13.40;;
21233;SDS011;10774;42.178;26.578;2023-02-28T06:58:50;23.48;;;17.70;;
21233;SDS011;10774;42.178;26.578;2023-02-28T07:01:15;14.52;;;11.80;;
21233;SDS011;10774;42.178;26.578;2023-02-28T07:03:42;19.38;;;13.80;;
21233;SDS011;10774;42.178;26.578;2023-02-28T07:06:07;29.63;;;23.00;;
21233;SDS011;10774;42.178;26.578;2023-02-28T07:08:33;20.00;;;13.98;;
21233;SDS011;10774;42.178;26.578;2023-02-28T07:10:59;17.38;;;14.00;;
21233;SDS011;10774;42.178;26.578;2023-02-28T07:13:25;14.68;;;12.02;;
21233;SDS011;10774;42.178;26.578;2023-02-28T07:15:54;16.40;;;13.25;;
21233;SDS011;10774;42.178;26.578;2023-02-28T07:18:20;21.23;;;16.10;;
21233;SDS011;10774;42.178;26.578;2023-02-28T07:20:46;16.52;;;13.20;;
21233;SDS011;10774;42.178;26.578;2023-02-28T07:23:11;19.65;;;13.30;;
21233;SDS011;10774;42.178;26.578;2023-02-28T07:25:37;22.90;;;16.30;;
21233;SDS011;10774;42.178;26.578;2023-02-28T07:28:02;21.15;;;14.68;;
21233;SDS011;10774;42.178;26.578;2023-02-28T07:30:27;17.65;;;13.52;;
21233;SDS011;10774;42.178;26.578;2023-02-28T07:32:53;17.27;;;13.07;;
21233;SDS011;10774;42.178;26.578;2023-02-28T07:35:21;16.23;;;12.57;;
21233;SDS011;10774;42.178;26.578;2023-02-28T07:37:46;15.38;;;12.32;;
21233;SDS011;10774;42.178;26.578;2023-02-28T07:40:12;19.70;;;14.25;;
21233;SDS011;10774;42.178;26.578;2023-02-28T07:42:38;19.05;;;12.40;;
21233;SDS011;10774;42.178;26.578;2023-02-28T07:45:06;15.98;;;12.05;;
21233;SDS011;10774;42.178;26.578;2023-02-28T07:47:33;24.85;;;16.73;;
21233;SDS011;10774;42.178;26.578;2023-02-28T07:49:58;14.13;;;10.27;;
21233;SDS011;10774;42.178;26.578;2023-02-28T07:52:24;31.85;;;20.38;;
21233;SDS011;10774;42.178;26.578;2023-02-28T07:54:50;40.30;;;26.40;;
21233;SDS011;10774;42.178;26.578;2023-02-28T07:57:16;26.50;;;19.33;;
21233;SDS011;10774;42.178;26.578;2023-02-28T07:59:42;20.10;;;13.73;;
21233;SDS011;10774;42.178;26.578;2023-02-28T08:02:14;16.73;;;12.40;;
21233;SDS011;10774;42.178;26.578;2023-02-28T08:04:41;13.77;;;11.18;;
21233;SDS011;10774;42.178;26.578;2023-02-28T08:07:07;16.80;;;10.85;;
21233;SDS011;10774;42.178;26.578;2023-02-28T08:09:33;18.95;;;9.13;;
21233;SDS011;10774;42.178;26.578;2023-02-28T08:11:59;12.63;;;9.20;;
21233;SDS011;10774;42.178;26.578;2023-02-28T08:14:24;18.33;;;11.40;;
21233;SDS011;10774;42.178;26.578;2023-02-28T08:16:50;17.08;;;11.52;;
21233;SDS011;10774;42.178;26.578;2023-02-28T08:19:15;14.13;;;10.43;;
21233;SDS011;10774;42.178;26.578;2023-02-28T08:21:41;15.23;;;10.48;;
21233;SDS011;10774;42.178;26.578;2023-02-28T08:24:06;23.30;;;14.43;;
21233;SDS011;10774;42.178;26.578;2023-02-28T08:26:32;23.90;;;15.40;;
21233;SDS011;10774;42.178;26.578;2023-02-28T08:28:57;25.50;;;14.82;;
21233;SDS011;10774;42.178;26.578;2023-02-28T08:31:23;28.98;;;21.92;;
21233;SDS011;10774;42.178;26.578;2023-02-28T08:33:48;20.73;;;15.10;;
21233;SDS011;10774;42.178;26.578;2023-02-28T08:36:16;20.77;;;13.50;;
21233;SDS011;10774;42.178;26.578;2023-02-28T08:38:42;28.23;;;19.77;;
21233;SDS011;10774;42.178;26.578;2023-02-28T08:41:09;13.48;;;11.00;;
21233;SDS011;10774;42.178;26.578;2023-02-28T08:43:36;15.02;;;11.68;;
21233;SDS011;10774;42.178;26.578;2023-02-28T08:46:03;12.30;;;9.07;;
21233;SDS011;10774;42.178;26.578;2023-02-28T08:48:30;14.60;;;9.23;;
21233;SDS011;10774;42.178;26.578;2023-02-28T08:51:01;10.68;;;8.20;;
21233;SDS011;10774;42.178;26.578;2023-02-28T08:53:28;13.15;;;8.93;;
21233;SDS011;10774;42.178;26.578;2023-02-28T08:56:00;12.95;;;8.75;;
21233;SDS011;10774;42.178;26.578;2023-02-28T08:58:31;14.30;;;9.27;;
21233;SDS011;10774;42.178;26.578;2023-02-28T09:00:56;12.95;;;10.07;;
21233;SDS011;10774;42.178;26.578;2023-02-28T09:03:22;10.82;;;7.97;;
21233;SDS011;10774;42.178;26.578;2023-02-28T09:05:55;13.68;;;9.35;;
21233;SDS011;10774;42.178;26.578;2023-02-28T09:08:22;14.15;;;9.23;;
21233;SDS011;10774;42.178;26.578;2023-02-28T09:10:48;13.40;;;8.68;;
21233;SDS011;10774;42.178;26.578;2023-02-28T09:13:14;9.10;;;7.13;;
21233;SDS011;10774;42.178;26.578;2023-02-28T09:15:39;12.05;;;7.72;;
21233;SDS011;10774;42.178;26.578;2023-02-28T09:18:05;10.57;;;7.15;;
21233;SDS011;10774;42.178;26.578;2023-02-28T09:20:30;19.13;;;10.13;;
21233;SDS011;10774;42.178;26.578;2023-02-28T09:22:56;20.42;;;10.90;;
21233;SDS011;10774;42.178;26.578;2023-02-28T09:25:21;13.45;;;9.68;;
21233;SDS011;10774;42.178;26.578;2023-02-28T09:27:46;12.38;;;8.13;;
21233;SDS011;10774;42.178;26.578;2023-02-28T09:30:12;11.90;;;7.28;;
21233;SDS011;10774;42.178;26.578;2023-02-28T09:32:38;13.52;;;10.02;;
21233;SDS011;10774;42.178;26.578;2023-02-28T09:35:03;17.85;;;9.57;;
21233;SDS011;10774;42.178;26.578;2023-02-28T09:37:29;13.77;;;8.77;;
21233;SDS011;10774;42.178;26.578;2023-02-28T09:39:56;12.25;;;8.35;;
21233;SDS011;10774;42.178;26.578;2023-02-28T09:42:23;12.30;;;8.65;;
21233;SDS011;10774;42.178;26.578;2023-02-28T09:44:55;14.07;;;8.93;;
21233;SDS011;10774;42.178;26.578;2023-02-28T09:47:30;15.90;;;11.18;;
21233;SDS011;10774;42.178;26.578;2023-02-28T09:50:51;18.92;;;11.43;;
21233;SDS011;10774;42.178;26.578;2023-02-28T09:52:51;22.27;;;14.35;;
21233;SDS011;10774;42.178;26.578;2023-02-28T09:57:52;26.05;;;14.52;;
21233;SDS011;10774;42.178;26.578;2023-02-28T10:03:14;29.08;;;16.52;;
21233;SDS011;10774;42.178;26.578;2023-02-28T10:06:07;30.48;;;16.85;;
21233;SDS011;10774;42.178;26.578;2023-02-28T10:08:40;33.45;;;18.55;;
21233;SDS011;10774;42.178;26.578;2023-02-28T10:11:16;25.20;;;16.83;;
21233;SDS011;10774;42.178;26.578;2023-02-28T10:19:44;19.30;;;12.57;;
21233;SDS011;10774;42.178;26.578;2023-02-28T10:22:25;17.77;;;11.60;;
21233;SDS011;10774;42.178;26.578;2023-02-28T10:24:55;15.35;;;10.88;;
21233;SDS011;10774;42.178;26.578;2023-02-28T10:27:26;17.13;;;11.35;;
21233;SDS011;10774;42.178;26.578;2023-02-28T10:29:56;16.48;;;10.63;;
21233;SDS011;10774;42.178;26.578;2023-02-28T10:32:30;16.30;;;10.23;;
21233;SDS011;10774;42.178;26.578;2023-02-28T10:35:15;18.05;;;10.05;;
21233;SDS011;10774;42.178;26.578;2023-02-28T10:37:41;20.33;;;11.10;;
21233;SDS011;10774;42.178;26.578;2023-02-28T10:40:25;17.38;;;11.90;;
21233;SDS011;10774;42.178;26.578;2023-02-28T10:45:24;20.80;;;12.75;;
21233;SDS011;10774;42.178;26.578;2023-02-28T10:50:43;23.88;;;13.90;;
21233;SDS011;10774;42.178;26.578;2023-02-28T10:53:37;20.52;;;14.57;;
21233;SDS011;10774;42.178;26.578;2023-02-28T10:56:17;28.90;;;15.85;;
21233;SDS011;10774;42.178;26.578;2023-02-28T11:03:57;21.42;;;11.82;;
21233;SDS011;10774;42.178;26.578;2023-02-28T11:06:33;27.60;;;14.63;;
21233;SDS011;10774;42.178;26.578;2023-02-28T11:09:03;24.27;;;15.50;;
21233;SDS011;10774;42.178;26.578;2023-02-28T11:11:45;18.15;;;12.00;;
21233;SDS011;10774;42.178;26.578;2023-02-28T11:14:20;20.40;;;13.48;;
21233;SDS011;10774;42.178;26.578;2023-02-28T11:16:49;22.42;;;13.40;;
21233;SDS011;10774;42.178;26.578;2023-02-28T11:19:20;16.88;;;11.90;;
21233;SDS011;10774;42.178;26.578;2023-02-28T11:21:54;17.80;;;11.23;;
21233;SDS011;10774;42.178;26.578;2023-02-28T11:24:41;15.18;;;10.18;;
21233;SDS011;10774;42.178;26.578;2023-02-28T11:30:03;18.92;;;11.65;;
21233;SDS011;10774;42.178;26.578;2023-02-28T11:32:30;14.52;;;10.25;;
21233;SDS011;10774;42.178;26.578;2023-02-28T11:35:00;17.08;;;10.77;;
21233;SDS011;10774;42.178;26.578;2023-02-28T11:37:29;19.45;;;11.80;;
21233;SDS011;10774;42.178;26.578;2023-02-28T11:39:56;19.98;;;11.63;;
21233;SDS011;10774;42.178;26.578;2023-02-28T11:56:03;18.55;;;12.15;;
21233;SDS011;10774;42.178;26.578;2023-02-28T12:01:43;15.32;;;10.43;;
21233;SDS011;10774;42.178;26.578;2023-02-28T12:20:53;14.80;;;9.90;;
21233;SDS011;10774;42.178;26.578;2023-02-28T12:28:47;13.80;;;8.85;;
21233;SDS011;10774;42.178;26.578;2023-02-28T12:31:20;13.38;;;9.43;;
21233;SDS011;10774;42.178;26.578;2023-02-28T12:33:52;17.48;;;10.80;;
21233;SDS011;10774;42.178;26.578;2023-02-28T12:36:24;17.85;;;10.38;;
21233;SDS011;10774;42.178;26.578;2023-02-28T12:39:00;15.95;;;10.68;;
21233;SDS011;10774;42.178;26.578;2023-02-28T12:44:16;22.85;;;16.02;;
21233;SDS011;10774;42.178;26.578;2023-02-28T12:46:48;20.45;;;11.88;;
21233;SDS011;10774;42.178;26.578;2023-02-28T12:49:30;14.68;;;9.68;;
21233;SDS011;10774;42.178;26.578;2023-02-28T12:52:22;14.63;;;9.70;;
21233;SDS011;10774;42.178;26.578;2023-02-28T12:55:01;15.52;;;10.73;;
21233;SDS011;10774;42.178;26.578;2023-02-28T12:57:38;16.38;;;10.45;;
21233;SDS011;10774;42.178;26.578;2023-02-28T13:00:17;15.73;;;10.85;;
21233;SDS011;10774;42.178;26.578;2023-02-28T13:13:58;15.27;;;10.45;;
21233;SDS011;10774;42.178;26.578;2023-02-28T13:16:25;17.13;;;10.57;;
21233;SDS011;10774;42.178;26.578;2023-02-28T13:18:50;10.57;;;8.07;;
21233;SDS011;10774;42.178;26.578;2023-02-28T13:32:29;14.95;;;9.00;;
21233;SDS011;10774;42.178;26.578;2023-02-28T13:34:41;11.50;;;8.95;;
21233;SDS011;10774;42.178;26.578;2023-02-28T13:37:32;13.35;;;8.70;;
21233;SDS011;10774;42.178;26.578;2023-02-28T13:40:26;12.35;;;9.52;;
21233;SDS011;10774;42.178;26.578;2023-02-28T13:43:03;10.07;;;7.15;;
21233;SDS011;10774;42.178;26.578;2023-02-28T13:45:32;13.45;;;8.52;;
21233;SDS011;10774;42.178;26.578;2023-02-28T13:48:04;12.00;;;8.50;;
21233;SDS011;10774;42.178;26.578;2023-02-28T13:50:41;13.35;;;7.95;;
21233;SDS011;10774;42.178;26.578;2023-02-28T14:03:37;15.73;;;9.48;;
21233;SDS011;10774;42.178;26.578;2023-02-28T14:06:13;15.07;;;9.50;;
21233;SDS011;10774;42.178;26.578;2023-02-28T14:09:02;11.98;;;8.73;;
21233;SDS011;10774;42.178;26.578;2023-02-28T14:11:38;13.32;;;9.23;;
21233;SDS011;10774;42.178;26.578;2023-02-28T14:14:05;16.02;;;10.55;;
21233;SDS011;10774;42.178;26.578;2023-02-28T14:16:43;18.02;;;10.15;;
21233;SDS011;10774;42.178;26.578;2023-02-28T14:19:14;13.98;;;9.00;;
21233;SDS011;10774;42.178;26.578;2023-02-28T14:21:59;13.50;;;8.35;;
21233;SDS011;10774;42.178;26.578;2023-02-28T14:27:11;17.10;;;10.88;;
21233;SDS011;10774;42.178;26.578;2023-02-28T14:32:41;10.60;;;7.85;;
21233;SDS011;10774;42.178;26.578;2023-02-28T14:37:50;10.52;;;8.57;;
21233;SDS011;10774;42.178;26.578;2023-02-28T14:40:22;11.27;;;9.25;;
21233;SDS011;10774;42.178;26.578;2023-02-28T14:43:00;11.35;;;7.82;;
21233;SDS011;10774;42.178;26.578;2023-02-28T14:45:28;14.73;;;11.18;;
21233;SDS011;10774;42.178;26.578;2023-02-28T14:47:55;16.17;;;11.38;;
21233;SDS011;10774;42.178;26.578;2023-02-28T14:50:24;16.23;;;10.02;;
21233;SDS011;10774;42.178;26.578;2023-02-28T14:52:54;12.68;;;8.90;;
21233;SDS011;10774;42.178;26.578;2023-02-28T14:55:31;12.88;;;8.60;;
21233;SDS011;10774;42.178;26.578;2023-02-28T14:57:59;13.55;;;10.25;;
21233;SDS011;10774;42.178;26.578;2023-02-28T15:00:35;19.17;;;14.70;;
21233;SDS011;10774;42.178;26.578;2023-02-28T15:03:18;18.25;;;12.50;;
21233;SDS011;10774;42.178;26.578;2023-02-28T15:05:56;17.50;;;12.02;;
21233;SDS011;10774;42.178;26.578;2023-02-28T15:08:23;11.90;;;9.95;;
21233;SDS011;10774;42.178;26.578;2023-02-28T15:13:22;16.80;;;13.43;;
21233;SDS011;10774;42.178;26.578;2023-02-28T15:15:56;15.35;;;8.90;;
21233;SDS011;10774;42.178;26.578;2023-02-28T15:21:07;9.27;;;7.30;;
21233;SDS011;10774;42.178;26.578;2023-02-28T15:23:38;9.55;;;7.43;;
21233;SDS011;10774;42.178;26.578;2023-02-28T15:26:10;21.67;;;12.60;;
21233;SDS011;10774;42.178;26.578;2023-02-28T15:28:39;15.43;;;10.98;;
21233;SDS011;10774;42.178;26.578;2023-02-28T15:31:16;14.35;;;9.38;;
21233;SDS011;10774;42.178;26.578;2023-02-28T15:33:54;14.52;;;9.55;;
21233;SDS011;10774;42.178;26.578;2023-02-28T15:36:23;16.33;;;11.15;;
21233;SDS011;10774;42.178;26.578;2023-02-28T15:38:52;10.48;;;7.47;;
21233;SDS011;10774;42.178;26.578;2023-02-28T15:41:25;29.75;;;26.52;;
21233;SDS011;10774;42.178;26.578;2023-02-28T15:49:19;15.77;;;13.40;;
21233;SDS011;10774;42.178;26.578;2023-02-28T15:51:48;10.13;;;7.40;;
21233;SDS011;10774;42.178;26.578;2023-02-28T15:54:17;14.40;;;10.43;;
21233;SDS011;10774;42.178;26.578;2023-02-28T15:56:49;18.02;;;11.43;;
21233;SDS011;10774;42.178;26.578;2023-02-28T15:59:23;12.90;;;8.98;;
21233;SDS011;10774;42.178;26.578;2023-02-28T16:02:12;13.45;;;9.35;;
21233;SDS011;10774;42.178;26.578;2023-02-28T16:04:55;13.30;;;9.45;;
21233;SDS011;10774;42.178;26.578;2023-02-28T16:07:23;9.43;;;6.65;;
21233;SDS011;10774;42.178;26.578;2023-02-28T16:09:49;14.88;;;10.30;;
21233;SDS011;10774;42.178;26.578;2023-02-28T16:12:15;16.23;;;11.18;;
21233;SDS011;10774;42.178;26.578;2023-02-28T16:14:40;11.60;;;7.72;;
21233;SDS011;10774;42.178;26.578;2023-02-28T16:17:07;10.80;;;7.90;;
21233;SDS011;10774;42.178;26.578;2023-02-28T16:19:41;11.10;;;8.57;;
21233;SDS011;10774;42.178;26.578;2023-02-28T16:22:07;9.88;;;7.53;;
21233;SDS011;10774;42.178;26.578;2023-02-28T16:24:34;11.13;;;7.18;;
21233;SDS011;10774;42.178;26.578;2023-02-28T16:27:00;5.07;;;3.83;;
21233;SDS011;10774;42.178;26.578;2023-02-28T16:31:56;15.05;;;9.57;;
21233;SDS011;10774;42.178;26.578;2023-02-28T16:34:22;13.15;;;8.82;;
21233;SDS011;10774;42.178;26.578;2023-02-28T16:36:48;13.45;;;9.82;;
21233;SDS011;10774;42.178;26.578;2023-02-28T16:39:14;8.73;;;6.35;;
21233;SDS011;10774;42.178;26.578;2023-02-28T16:41:41;7.25;;;5.05;;
21233;SDS011;10774;42.178;26.578;2023-02-28T16:44:13;8.20;;;5.75;;
21233;SDS011;10774;42.178;26.578;2023-02-28T16:46:46;11.68;;;8.88;;
21233;SDS011;10774;42.178;26.578;2023-02-28T16:49:12;18.63;;;12.38;;
21233;SDS011;10774;42.178;26.578;2023-02-28T16:51:40;17.13;;;11.27;;
21233;SDS011;10774;42.178;26.578;2023-02-28T16:54:05;12.90;;;9.00;;
21233;SDS011;10774;42.178;26.578;2023-02-28T16:56:31;8.00;;;6.15;;
21233;SDS011;10774;42.178;26.578;2023-02-28T16:58:59;10.93;;;8.18;;